sensor_id;sensor_type;location;lat;lon;timestamp;pressure;altitude;pressure_sealevel;temperature;humidity
73306;BME280;61530;51.158;0.880;2023-02-02T17:33:22;1024.69;;;10.375;40.5219
73306;BME280;61530;51.158;0.880;2023-02-02T17:34:24;1024.7;;;8.25;40.4191
73306;BME280;61530;51.158;0.880;2023-02-02T17:35:29;1024.74;;;8.1875;38.6856
73306;BME280;61530;51.158;0.880;2023-02-02T17:36:33;1024.74;;;8.125;40.2478
73306;BME280;61530;51.158;0.880;2023-02-02T17:37:37;1024.72;;;8.1875;40.442
73306;BME280;61530;51.158;0.880;2023-02-02T17:38:40;1024.72;;;8.1875;38.9844
73306;BME280;61530;51.158;0.880;2023-02-02T17:39:45;1024.77;;;8.125;39.9279
73306;BME280;61530;51.158;0.880;2023-02-02T17:40:49;1024.76;;;8.125;38.9039
73306;BME280;61530;51.158;0.880;2023-02-02T17:41:53;1024.75;;;8.1875;38.8347
73306;BME280;61530;51.158;0.880;2023-02-02T17:42:56;1024.7;;;8.125;41.0347
73306;BME280;61530;51.158;0.880;2023-02-02T17:44:01;1024.7;;;8.125;39.2816
73306;BME280;61530;51.158;0.880;2023-02-02T17:45:10;1024.64;;;8.0625;39.0355
73306;BME280;61530;51.158;0.880;2023-02-02T17:46:11;1024.66;;;8.125;37.3845
73306;BME280;61530;51.158;0.880;2023-02-02T17:47:12;1024.66;;;8.0;38.1306
73306;BME280;61530;51.158;0.880;2023-02-02T17:48:17;1024.61;;;8.0625;39.2877
73306;BME280;61530;51.158;0.880;2023-02-02T17:49:20;1024.6;;;8.125;39.1844
73306;BME280;61530;51.158;0.880;2023-02-02T17:50:25;1024.63;;;8.0;39.5851
73306;BME280;61530;51.158;0.880;2023-02-02T17:51:28;1024.61;;;8.0625;37.7066
73306;BME280;61530;51.158;0.880;2023-02-02T17:52:33;1024.6;;;8.0625;38.434
73306;BME280;61530;51.158;0.880;2023-02-02T17:53:36;1024.56;;;8.0;39.1615
73306;BME280;61530;51.158;0.880;2023-02-02T17:54:41;1024.58;;;8.0625;37.066
73306;BME280;61530;51.158;0.880;2023-02-02T17:55:45;1024.57;;;7.9375;38.8122
73306;BME280;61530;51.158;0.880;2023-02-02T17:56:49;1024.53;;;8.0;39.585
73306;BME280;61530;51.158;0.880;2023-02-02T17:57:53;1024.56;;;8.0;40.3507
73306;BME280;61530;51.158;0.880;2023-02-02T17:58:57;1024.57;;;8.0;38.0836
73306;BME280;61530;51.158;0.880;2023-02-02T18:00:01;1024.54;;;7.9375;39.7794
73306;BME280;61530;51.158;0.880;2023-02-02T18:01:06;1024.57;;;8.0;40.9095
73306;BME280;61530;51.158;0.880;2023-02-02T18:02:11;1024.58;;;8.0;38.3136
73306;BME280;61530;51.158;0.880;2023-02-02T18:03:16;1024.62;;;7.875;37.7492
73306;BME280;61530;51.158;0.880;2023-02-02T18:04:17;1024.56;;;7.9375;38.8234
73306;BME280;61530;51.158;0.880;2023-02-02T18:05:21;1024.61;;;7.875;37.6982
73306;BME280;61530;51.158;0.880;2023-02-02T18:06:25;1024.53;;;7.875;40.916
73306;BME280;61530;51.158;0.880;2023-02-02T18:07:29;1024.5;;;8.0;42.1855
73306;BME280;61530;51.158;0.880;2023-02-02T18:08:32;1024.52;;;7.9375;40.602
73306;BME280;61530;51.158;0.880;2023-02-02T18:09:37;1024.51;;;8.0;41.2068
73306;BME280;61530;51.158;0.880;2023-02-02T18:10:41;1024.55;;;7.875;39.6536
73306;BME280;61530;51.158;0.880;2023-02-02T18:11:45;1024.57;;;7.875;39.6136
73306;BME280;61530;51.158;0.880;2023-02-02T18:12:49;1024.61;;;8.0;39.2301
73306;BME280;61530;51.158;0.880;2023-02-02T18:13:53;1024.63;;;7.9375;38.0712
73306;BME280;61530;51.158;0.880;2023-02-02T18:14:57;1024.59;;;8.0;39.0926
73306;BME280;61530;51.158;0.880;2023-02-02T18:16:01;1024.55;;;8.1875;41.8335
73306;BME280;61530;51.158;0.880;2023-02-02T18:17:04;1024.56;;;8.1875;41.9811
73306;BME280;61530;51.158;0.880;2023-02-02T18:18:10;1024.59;;;8.25;42.1481
73306;BME280;61530;51.158;0.880;2023-02-02T18:19:13;1024.57;;;8.1875;41.0877
73306;BME280;61530;51.158;0.880;2023-02-02T18:20:17;1024.58;;;8.0625;41.4348
73306;BME280;61530;51.158;0.880;2023-02-02T18:21:20;1024.58;;;8.25;41.2764
73306;BME280;61530;51.158;0.880;2023-02-02T18:22:25;1024.61;;;8.1875;39.665
73306;BME280;61530;51.158;0.880;2023-02-02T18:23:29;1024.6;;;8.25;40.637
73306;BME280;61530;51.158;0.880;2023-02-02T18:24:33;1024.58;;;8.25;39.0582
73306;BME280;61530;51.158;0.880;2023-02-02T18:25:37;1024.57;;;8.25;40.6767
73306;BME280;61530;51.158;0.880;2023-02-02T18:26:41;1024.57;;;8.3125;40.8314
73306;BME280;61530;51.158;0.880;2023-02-02T18:27:45;1024.58;;;8.3125;41.851
73306;BME280;61530;51.158;0.880;2023-02-02T18:28:49;1024.59;;;8.3125;39.4416
73306;BME280;61530;51.158;0.880;2023-02-02T18:29:52;1024.6;;;8.25;39.1497
73306;BME280;61530;51.158;0.880;2023-02-02T18:30:57;1024.56;;;8.25;40.0084
73306;BME280;61530;51.158;0.880;2023-02-02T18:32:01;1024.57;;;8.1875;41.6974
73306;BME280;61530;51.158;0.880;2023-02-02T18:33:06;1024.57;;;8.1875;43.1817
73306;BME280;61530;51.158;0.880;2023-02-02T18:34:09;1024.6;;;8.1875;43.7221
73306;BME280;61530;51.158;0.880;2023-02-02T18:35:13;1024.59;;;8.125;40.843
73306;BME280;61530;51.158;0.880;2023-02-02T18:36:19;1024.65;;;8.1875;39.0807
73306;BME280;61530;51.158;0.880;2023-02-02T18:37:21;1024.6;;;8.1875;42.7447
73306;BME280;61530;51.158;0.880;2023-02-02T18:38:24;1024.6;;;8.25;42.5862
73306;BME280;61530;51.158;0.880;2023-02-02T18:39:29;1024.64;;;8.25;44.3625
73306;BME280;61530;51.158;0.880;2023-02-02T18:40:33;1024.61;;;8.25;42.2851
73306;BME280;61530;51.158;0.880;2023-02-02T18:41:37;1024.58;;;8.1875;43.0136
73306;BME280;61530;51.158;0.880;2023-02-02T18:42:40;1024.58;;;8.1875;43.168
73306;BME280;61530;51.158;0.880;2023-02-02T18:43:45;1024.57;;;8.3125;42.034
73306;BME280;61530;51.158;0.880;2023-02-02T18:44:49;1024.55;;;8.3125;41.4531
73306;BME280;61530;51.158;0.880;2023-02-02T18:45:58;1024.55;;;8.1875;42.5176
73306;BME280;61530;51.158;0.880;2023-02-02T18:46:56;1024.54;;;8.25;42.0517
73306;BME280;61530;51.158;0.880;2023-02-02T18:48:01;1024.51;;;8.1875;43.0519
73306;BME280;61530;51.158;0.880;2023-02-02T18:49:05;1024.51;;;8.1875;42.1371
73306;BME280;61530;51.158;0.880;2023-02-02T18:50:09;1024.48;;;8.125;40.9628
73306;BME280;61530;51.158;0.880;2023-02-02T18:51:14;1024.5;;;8.125;42.5233
73306;BME280;61530;51.158;0.880;2023-02-02T18:52:17;1024.51;;;8.125;42.6039
73306;BME280;61530;51.158;0.880;2023-02-02T18:53:21;1024.53;;;8.1875;44.6177
73306;BME280;61530;51.158;0.880;2023-02-02T18:54:25;1024.47;;;8.1875;43.8988
73306;BME280;61530;51.158;0.880;2023-02-02T18:55:28;1024.52;;;8.1875;46.4228
73306;BME280;61530;51.158;0.880;2023-02-02T18:56:33;1024.5;;;8.1875;44.4968
73306;BME280;61530;51.158;0.880;2023-02-02T18:57:37;1024.51;;;8.125;44.239
73306;BME280;61530;51.158;0.880;2023-02-02T18:58:41;1024.51;;;8.125;45.1197
73306;BME280;61530;51.158;0.880;2023-02-02T18:59:44;1024.54;;;8.1875;44.5277
73306;BME280;61530;51.158;0.880;2023-02-02T19:00:49;1024.51;;;8.1875;45.9309
73306;BME280;61530;51.158;0.880;2023-02-02T19:01:53;1024.5;;;8.1875;44.6865
73306;BME280;61530;51.158;0.880;2023-02-02T19:02:57;1024.42;;;8.1875;43.6783
73306;BME280;61530;51.158;0.880;2023-02-02T19:04:00;1024.45;;;8.1875;41.5905
73306;BME280;61530;51.158;0.880;2023-02-02T19:05:05;1024.49;;;8.1875;44.0651
73306;BME280;61530;51.158;0.880;2023-02-02T19:06:09;1024.48;;;8.125;40.7406
73306;BME280;61530;51.158;0.880;2023-02-02T19:07:13;1024.51;;;8.0625;42.5184
73306;BME280;61530;51.158;0.880;2023-02-02T19:08:16;1024.54;;;8.0625;41.7313
73306;BME280;61530;51.158;0.880;2023-02-02T19:09:21;1024.53;;;8.1875;40.7571
73306;BME280;61530;51.158;0.880;2023-02-02T19:10:26;1024.59;;;8.1875;41.9498
73306;BME280;61530;51.158;0.880;2023-02-02T19:11:34;1024.58;;;8.125;42.2554
73306;BME280;61530;51.158;0.880;2023-02-02T19:12:32;1024.57;;;8.125;41.7898
73306;BME280;61530;51.158;0.880;2023-02-02T19:13:37;1024.58;;;8.1875;42.4953
73306;BME280;61530;51.158;0.880;2023-02-02T19:14:41;1024.63;;;8.125;40.3346
73306;BME280;61530;51.158;0.880;2023-02-02T19:15:47;1024.68;;;8.125;39.791
73306;BME280;61530;51.158;0.880;2023-02-02T19:16:49;1024.7;;;8.125;37.1804
73306;BME280;61530;51.158;0.880;2023-02-02T19:17:54;1024.7;;;8.1875;41.3794
73306;BME280;61530;51.158;0.880;2023-02-02T19:18:57;1024.79;;;8.25;39.5045
73306;BME280;61530;51.158;0.880;2023-02-02T19:20:13;1024.78;;;8.25;38.4093
73306;BME280;61530;51.158;0.880;2023-02-02T19:21:10;1024.8;;;8.125;41.2422
73306;BME280;61530;51.158;0.880;2023-02-02T19:22:18;1024.86;;;8.25;40.3862
73306;BME280;61530;51.158;0.880;2023-02-02T19:23:15;1024.91;;;8.3125;39.2522
73306;BME280;61530;51.158;0.880;2023-02-02T19:24:17;1024.94;;;8.25;40.7001
73306;BME280;61530;51.158;0.880;2023-02-02T19:25:20;1024.95;;;8.25;40.6832
73306;BME280;61530;51.158;0.880;2023-02-02T19:26:26;1024.91;;;8.25;41.1633
73306;BME280;61530;51.158;0.880;2023-02-02T19:27:29;1024.92;;;8.25;39.321
73306;BME280;61530;51.158;0.880;2023-02-02T19:28:33;1024.92;;;8.25;38.449
73306;BME280;61530;51.158;0.880;2023-02-02T19:29:37;1024.9;;;8.1875;42.6204
73306;BME280;61530;51.158;0.880;2023-02-02T19:30:43;1024.9;;;8.25;41.4313
73306;BME280;61530;51.158;0.880;2023-02-02T19:31:45;1024.89;;;8.25;40.6948
73306;BME280;61530;51.158;0.880;2023-02-02T19:32:49;1024.91;;;8.25;41.7331
73306;BME280;61530;51.158;0.880;2023-02-02T19:33:53;1024.9;;;8.125;41.6078
73306;BME280;61530;51.158;0.880;2023-02-02T19:34:59;1024.93;;;8.25;41.7622
73306;BME280;61530;51.158;0.880;2023-02-02T19:36:00;1024.96;;;8.25;39.9856
73306;BME280;61530;51.158;0.880;2023-02-02T19:37:19;1024.99;;;8.25;41.1973
73306;BME280;61530;51.158;0.880;2023-02-02T19:38:12;1025.02;;;8.25;42.9166
73306;BME280;61530;51.158;0.880;2023-02-02T19:39:15;1024.99;;;8.1875;42.9917
73306;BME280;61530;51.158;0.880;2023-02-02T19:40:20;1025.0;;;8.25;41.9063
73306;BME280;61530;51.158;0.880;2023-02-02T19:41:23;1025.03;;;8.1875;43.4186
73306;BME280;61530;51.158;0.880;2023-02-02T19:42:24;1025.04;;;8.0625;42.8608
73306;BME280;61530;51.158;0.880;2023-02-02T19:43:29;1025.01;;;8.3125;42.282
73306;BME280;61530;51.158;0.880;2023-02-02T19:44:33;1024.97;;;8.25;41.9397
73306;BME280;61530;51.158;0.880;2023-02-02T19:45:38;1024.98;;;8.25;41.4027
73306;BME280;61530;51.158;0.880;2023-02-02T19:46:43;1024.92;;;8.25;41.2317
73306;BME280;61530;51.158;0.880;2023-02-02T19:47:45;1024.88;;;8.25;41.0491
73306;BME280;61530;51.158;0.880;2023-02-02T19:48:52;1024.85;;;8.1875;41.2026
73306;BME280;61530;51.158;0.880;2023-02-02T19:49:53;1024.86;;;8.1875;41.0267
73306;BME280;61530;51.158;0.880;2023-02-02T19:50:57;1024.87;;;8.1875;41.7051
73306;BME280;61530;51.158;0.880;2023-02-02T19:52:02;1024.86;;;8.3125;41.961
73306;BME280;61530;51.158;0.880;2023-02-02T19:53:12;1024.89;;;8.25;40.5352
73306;BME280;61530;51.158;0.880;2023-02-02T19:54:24;1024.86;;;8.3125;40.0313
73306;BME280;61530;51.158;0.880;2023-02-02T19:55:35;1024.88;;;8.25;39.8139
73306;BME280;61530;51.158;0.880;2023-02-02T19:56:23;1024.82;;;8.1875;42.809
73306;BME280;61530;51.158;0.880;2023-02-02T19:57:25;1024.83;;;8.3125;42.2803
73306;BME280;61530;51.158;0.880;2023-02-02T19:58:29;1024.82;;;8.25;43.1352
73306;BME280;61530;51.158;0.880;2023-02-02T19:59:32;1024.83;;;8.3125;43.764
73306;BME280;61530;51.158;0.880;2023-02-02T20:00:36;1024.83;;;8.3125;41.677
73306;BME280;61530;51.158;0.880;2023-02-02T20:01:36;1024.86;;;8.3125;42.724
73306;BME280;61530;51.158;0.880;2023-02-02T20:02:47;1024.92;;;8.3125;40.6209
73306;BME280;61530;51.158;0.880;2023-02-02T20:03:45;1024.96;;;8.375;39.0284
73306;BME280;61530;51.158;0.880;2023-02-02T20:04:57;1025.04;;;8.3125;39.4932
73306;BME280;61530;51.158;0.880;2023-02-02T20:05:55;1025.02;;;8.3125;40.7739
73306;BME280;61530;51.158;0.880;2023-02-02T20:06:57;1025.02;;;8.25;40.7517
73306;BME280;61530;51.158;0.880;2023-02-02T20:08:05;1025.01;;;8.375;42.3489
73306;BME280;61530;51.158;0.880;2023-02-02T20:09:10;1024.95;;;8.3125;44.0983
73306;BME280;61530;51.158;0.880;2023-02-02T20:10:17;1024.9;;;8.3125;46.1155
73306;BME280;61530;51.158;0.880;2023-02-02T20:11:22;1024.89;;;8.3125;46.6465
73306;BME280;61530;51.158;0.880;2023-02-02T20:12:24;1024.88;;;8.3125;46.7475
73306;BME280;61530;51.158;0.880;2023-02-02T20:13:23;1024.84;;;8.25;46.6688
73306;BME280;61530;51.158;0.880;2023-02-02T20:14:27;1024.76;;;8.25;46.5173
73306;BME280;61530;51.158;0.880;2023-02-02T20:15:32;1024.73;;;8.3125;48.163
73306;BME280;61530;51.158;0.880;2023-02-02T20:16:38;1024.73;;;8.25;50.5688
73306;BME280;61530;51.158;0.880;2023-02-02T20:17:37;1024.7;;;8.25;49.5036
73306;BME280;61530;51.158;0.880;2023-02-02T20:18:43;1024.68;;;8.1875;47.4886
73306;BME280;61530;51.158;0.880;2023-02-02T20:19:45;1024.64;;;8.25;47.4363
73306;BME280;61530;51.158;0.880;2023-02-02T20:20:51;1024.62;;;8.1875;46.2763
73306;BME280;61530;51.158;0.880;2023-02-02T20:21:53;1024.64;;;8.1875;46.9202
73306;BME280;61530;51.158;0.880;2023-02-02T20:22:56;1024.68;;;8.1875;46.0375
73306;BME280;61530;51.158;0.880;2023-02-02T20:24:01;1024.68;;;8.1875;46.365
73306;BME280;61530;51.158;0.880;2023-02-02T20:25:06;1024.7;;;8.125;45.5797
73306;BME280;61530;51.158;0.880;2023-02-02T20:26:20;1024.69;;;8.1875;45.0719
73306;BME280;61530;51.158;0.880;2023-02-02T20:27:17;1024.66;;;8.1875;45.6761
73306;BME280;61530;51.158;0.880;2023-02-02T20:28:31;1024.65;;;8.1875;42.9871
73306;BME280;61530;51.158;0.880;2023-02-02T20:29:22;1024.65;;;8.125;43.0943
73306;BME280;61530;51.158;0.880;2023-02-02T20:30:27;1024.65;;;8.125;42.8511
73306;BME280;61530;51.158;0.880;2023-02-02T20:31:35;1024.66;;;8.1875;43.4644
73306;BME280;61530;51.158;0.880;2023-02-02T20:32:38;1024.72;;;8.1875;42.248
73306;BME280;61530;51.158;0.880;2023-02-02T20:33:40;1024.83;;;8.125;43.3009
73306;BME280;61530;51.158;0.880;2023-02-02T20:34:43;1024.9;;;8.1875;41.7226
73306;BME280;61530;51.158;0.880;2023-02-02T20:35:45;1024.96;;;8.1875;39.5903
73306;BME280;61530;51.158;0.880;2023-02-02T20:36:50;1025.01;;;8.1875;38.1951
73306;BME280;61530;51.158;0.880;2023-02-02T20:37:53;1025.08;;;8.125;38.9656
73306;BME280;61530;51.158;0.880;2023-02-02T20:38:59;1025.15;;;8.1875;37.7179
73306;BME280;61530;51.158;0.880;2023-02-02T20:40:05;1025.19;;;8.1875;37.0541
73306;BME280;61530;51.158;0.880;2023-02-02T20:41:05;1025.23;;;8.25;36.5482
73306;BME280;61530;51.158;0.880;2023-02-02T20:42:08;1025.21;;;8.3125;37.6887
73306;BME280;61530;51.158;0.880;2023-02-02T20:43:13;1025.18;;;8.25;39.3839
73306;BME280;61530;51.158;0.880;2023-02-02T20:44:16;1025.19;;;8.1875;38.4838
73306;BME280;61530;51.158;0.880;2023-02-02T20:45:21;1025.22;;;8.1875;38.3561
73306;BME280;61530;51.158;0.880;2023-02-02T20:46:24;1025.21;;;8.1875;38.7646
73306;BME280;61530;51.158;0.880;2023-02-02T20:47:29;1025.17;;;8.125;40.9802
73306;BME280;61530;51.158;0.880;2023-02-02T20:48:32;1025.13;;;8.1875;40.203
73306;BME280;61530;51.158;0.880;2023-02-02T20:49:38;1025.14;;;8.1875;40.203
73306;BME280;61530;51.158;0.880;2023-02-02T20:50:41;1025.16;;;8.25;38.7249
73306;BME280;61530;51.158;0.880;2023-02-02T20:51:45;1025.17;;;8.125;39.5675
73306;BME280;61530;51.158;0.880;2023-02-02T20:52:49;1025.15;;;8.25;40.0257
73306;BME280;61530;51.158;0.880;2023-02-02T20:53:53;1025.22;;;8.1875;38.8971
73306;BME280;61530;51.158;0.880;2023-02-02T20:54:56;1025.24;;;8.1875;38.6447
73306;BME280;61530;51.158;0.880;2023-02-02T20:56:01;1025.19;;;8.1875;39.7394
73306;BME280;61530;51.158;0.880;2023-02-02T20:57:05;1025.23;;;8.1875;39.3669
73306;BME280;61530;51.158;0.880;2023-02-02T20:58:09;1025.21;;;8.1875;39.5848
73306;BME280;61530;51.158;0.880;2023-02-02T20:59:12;1025.22;;;8.1875;40.0371
73306;BME280;61530;51.158;0.880;2023-02-02T21:00:17;1025.2;;;8.125;40.3632
73306;BME280;61530;51.158;0.880;2023-02-02T21:01:20;1025.19;;;8.1875;38.1608
73306;BME280;61530;51.158;0.880;2023-02-02T21:02:26;1025.21;;;8.25;36.8368
73306;BME280;61530;51.158;0.880;2023-02-02T21:03:28;1025.17;;;8.25;36.5134
73306;BME280;61530;51.158;0.880;2023-02-02T21:04:33;1025.2;;;8.3125;38.6326
73306;BME280;61530;51.158;0.880;2023-02-02T21:05:36;1025.19;;;8.25;36.6618
73306;BME280;61530;51.158;0.880;2023-02-02T21:06:41;1025.2;;;8.3125;38.5747
73306;BME280;61530;51.158;0.880;2023-02-02T21:07:44;1025.23;;;8.3125;38.7017
73306;BME280;61530;51.158;0.880;2023-02-02T21:08:49;1025.27;;;8.25;39.1264
73306;BME280;61530;51.158;0.880;2023-02-02T21:09:52;1025.3;;;8.375;38.799
73306;BME280;61530;51.158;0.880;2023-02-02T21:10:57;1025.27;;;8.25;38.7185
73306;BME280;61530;51.158;0.880;2023-02-02T21:12:00;1025.31;;;8.3125;37.4703
73306;BME280;61530;51.158;0.880;2023-02-02T21:13:05;1025.33;;;8.3125;38.3344
73306;BME280;61530;51.158;0.880;2023-02-02T21:14:09;1025.31;;;8.3125;40.5515
73306;BME280;61530;51.158;0.880;2023-02-02T21:15:13;1025.36;;;8.375;38.4485
73306;BME280;61530;51.158;0.880;2023-02-02T21:16:16;1025.37;;;8.3125;37.332
73306;BME280;61530;51.158;0.880;2023-02-02T21:17:21;1025.39;;;8.375;37.7463
73306;BME280;61530;51.158;0.880;2023-02-02T21:18:24;1025.39;;;8.3125;36.9756
73306;BME280;61530;51.158;0.880;2023-02-02T21:19:29;1025.34;;;8.375;38.236
73306;BME280;61530;51.158;0.880;2023-02-02T21:20:32;1025.37;;;8.3125;38.6157
73306;BME280;61530;51.158;0.880;2023-02-02T21:21:37;1025.36;;;8.3125;40.2715
73306;BME280;61530;51.158;0.880;2023-02-02T21:22:41;1025.38;;;8.375;40.4716
73306;BME280;61530;51.158;0.880;2023-02-02T21:23:45;1025.39;;;8.375;41.9438
73306;BME280;61530;51.158;0.880;2023-02-02T21:24:48;1025.42;;;8.25;42.4738
73306;BME280;61530;51.158;0.880;2023-02-02T21:25:53;1025.48;;;8.4375;41.1971
73306;BME280;61530;51.158;0.880;2023-02-02T21:26:56;1025.5;;;8.4375;40.4434
73306;BME280;61530;51.158;0.880;2023-02-02T21:28:01;1025.52;;;8.4375;39.017
73306;BME280;61530;51.158;0.880;2023-02-02T21:29:04;1025.49;;;8.4375;37.7865
73306;BME280;61530;51.158;0.880;2023-02-02T21:30:11;1025.45;;;8.375;40.5972
73306;BME280;61530;51.158;0.880;2023-02-02T21:31:14;1025.39;;;8.375;40.5573
73306;BME280;61530;51.158;0.880;2023-02-02T21:32:17;1025.43;;;8.375;38.9028
73306;BME280;61530;51.158;0.880;2023-02-02T21:33:20;1025.43;;;8.375;40.1172
73306;BME280;61530;51.158;0.880;2023-02-02T21:34:25;1025.47;;;8.375;39.5503
73306;BME280;61530;51.158;0.880;2023-02-02T21:35:28;1025.46;;;8.375;38.1444
73306;BME280;61530;51.158;0.880;2023-02-02T21:36:34;1025.48;;;8.375;39.0401
73306;BME280;61530;51.158;0.880;2023-02-02T21:37:36;1025.44;;;8.375;37.5626
73306;BME280;61530;51.158;0.880;2023-02-02T21:38:41;1025.47;;;8.3125;36.3412
73306;BME280;61530;51.158;0.880;2023-02-02T21:39:45;1025.46;;;8.3125;37.6445
73306;BME280;61530;51.158;0.880;2023-02-02T21:40:49;1025.42;;;8.3125;37.6611
73306;BME280;61530;51.158;0.880;2023-02-02T21:41:59;1025.4;;;8.3125;38.7018
73306;BME280;61530;51.158;0.880;2023-02-02T21:42:58;1025.37;;;8.3125;39.0463
73306;BME280;61530;51.158;0.880;2023-02-02T21:44:00;1025.39;;;8.375;41.0602
73306;BME280;61530;51.158;0.880;2023-02-02T21:45:26;1025.39;;;8.3125;38.5005
73306;BME280;61530;51.158;0.880;2023-02-02T21:46:14;1025.37;;;8.4375;38.0582
73306;BME280;61530;51.158;0.880;2023-02-02T21:47:25;1025.36;;;8.375;37.979
73306;BME280;61530;51.158;0.880;2023-02-02T21:48:25;1025.37;;;8.3125;39.6879
73306;BME280;61530;51.158;0.880;2023-02-02T21:49:23;1025.42;;;8.375;38.8797
73306;BME280;61530;51.158;0.880;2023-02-02T21:50:27;1025.42;;;8.3125;38.8052
73306;BME280;61530;51.158;0.880;2023-02-02T21:51:32;1025.41;;;8.3125;37.5867
73306;BME280;61530;51.158;0.880;2023-02-02T21:52:33;1025.39;;;8.3125;37.8741
73306;BME280;61530;51.158;0.880;2023-02-02T21:53:37;1025.43;;;8.375;36.641
73306;BME280;61530;51.158;0.880;2023-02-02T21:54:41;1025.44;;;8.3125;35.5788
73306;BME280;61530;51.158;0.880;2023-02-02T21:55:46;1025.47;;;8.3125;36.7117
73306;BME280;61530;51.158;0.880;2023-02-02T21:56:49;1025.45;;;8.25;37.0849
73306;BME280;61530;51.158;0.880;2023-02-02T21:57:54;1025.46;;;8.375;36.4286
73306;BME280;61530;51.158;0.880;2023-02-02T21:58:57;1025.47;;;8.3125;36.2132
73306;BME280;61530;51.158;0.880;2023-02-02T22:00:16;1025.44;;;8.375;35.544
73306;BME280;61530;51.158;0.880;2023-02-02T22:01:19;1025.42;;;8.3125;37.4269
73306;BME280;61530;51.158;0.880;2023-02-02T22:02:27;1025.45;;;8.375;38.8861
73306;BME280;61530;51.158;0.880;2023-02-02T22:03:25;1025.46;;;8.375;38.1853
73306;BME280;61530;51.158;0.880;2023-02-02T22:04:21;1025.45;;;8.3125;37.9268
73306;BME280;61530;51.158;0.880;2023-02-02T22:05:25;1025.41;;;8.375;39.9396
73306;BME280;61530;51.158;0.880;2023-02-02T22:06:27;1025.35;;;8.375;39.2983
73306;BME280;61530;51.158;0.880;2023-02-02T22:07:31;1025.35;;;8.375;40.2827
73306;BME280;61530;51.158;0.880;2023-02-02T22:08:35;1025.4;;;8.3125;40.6944
73306;BME280;61530;51.158;0.880;2023-02-02T22:09:39;1025.41;;;8.3125;38.501
73306;BME280;61530;51.158;0.880;2023-02-02T22:10:42;1025.4;;;8.375;39.4018
73306;BME280;61530;51.158;0.880;2023-02-02T22:11:49;1025.37;;;8.4375;40.8304
73306;BME280;61530;51.158;0.880;2023-02-02T22:12:49;1025.37;;;8.4375;40.6999
73306;BME280;61530;51.158;0.880;2023-02-02T22:13:53;1025.33;;;8.375;39.9396
73306;BME280;61530;51.158;0.880;2023-02-02T22:14:59;1025.35;;;8.4375;39.9796
73306;BME280;61530;51.158;0.880;2023-02-02T22:16:01;1025.37;;;8.375;38.7599
73306;BME280;61530;51.158;0.880;2023-02-02T22:17:17;1025.34;;;8.375;37.9802
73306;BME280;61530;51.158;0.880;2023-02-02T22:18:12;1025.42;;;8.4375;37.5313
73306;BME280;61530;51.158;0.880;2023-02-02T22:19:25;1025.4;;;8.375;36.9216
73306;BME280;61530;51.158;0.880;2023-02-02T22:20:27;1025.36;;;8.3125;36.5076
73306;BME280;61530;51.158;0.880;2023-02-02T22:21:21;1025.41;;;8.25;35.8664
73306;BME280;61530;51.158;0.880;2023-02-02T22:22:28;1025.35;;;8.3125;36.2664
73306;BME280;61530;51.158;0.880;2023-02-02T22:23:29;1025.31;;;8.25;37.2611
73306;BME280;61530;51.158;0.880;2023-02-02T22:24:32;1025.32;;;8.3125;37.0897
73306;BME280;61530;51.158;0.880;2023-02-02T22:25:39;1025.23;;;8.25;37.66
73306;BME280;61530;51.158;0.880;2023-02-02T22:26:41;1025.22;;;8.375;39.9849
73306;BME280;61530;51.158;0.880;2023-02-02T22:27:47;1025.18;;;8.3125;38.7897
73306;BME280;61530;51.158;0.880;2023-02-02T22:28:48;1025.14;;;8.375;38.8418
73306;BME280;61530;51.158;0.880;2023-02-02T22:29:59;1025.17;;;8.4375;38.6355
73306;BME280;61530;51.158;0.880;2023-02-02T22:30:56;1025.12;;;8.375;38.7507
73306;BME280;61530;51.158;0.880;2023-02-02T22:32:01;1025.17;;;8.375;37.2242
73306;BME280;61530;51.158;0.880;2023-02-02T22:33:06;1025.22;;;8.375;37.5337
73306;BME280;61530;51.158;0.880;2023-02-02T22:34:09;1025.24;;;8.3125;36.0533
73306;BME280;61530;51.158;0.880;2023-02-02T22:35:13;1025.31;;;8.3125;34.7198
73306;BME280;61530;51.158;0.880;2023-02-02T22:36:17;1025.27;;;8.375;35.6306
73306;BME280;61530;51.158;0.880;2023-02-02T22:37:21;1025.24;;;8.375;37.4036
73306;BME280;61530;51.158;0.880;2023-02-02T22:38:25;1025.21;;;8.4375;37.8857
73306;BME280;61530;51.158;0.880;2023-02-02T22:39:28;1025.26;;;8.375;37.6218
73306;BME280;61530;51.158;0.880;2023-02-02T22:40:33;1025.28;;;8.5;38.5214
73306;BME280;61530;51.158;0.880;2023-02-02T22:41:36;1025.31;;;8.4375;37.6147
73306;BME280;61530;51.158;0.880;2023-02-02T22:42:41;1025.37;;;8.4375;36.4187
73306;BME280;61530;51.158;0.880;2023-02-02T22:43:44;1025.31;;;8.4375;37.3855
73306;BME280;61530;51.158;0.880;2023-02-02T22:44:49;1025.31;;;8.4375;38.9905
73306;BME280;61530;51.158;0.880;2023-02-02T22:45:52;1025.33;;;8.4375;38.5845
73306;BME280;61530;51.158;0.880;2023-02-02T22:46:57;1025.35;;;8.5;40.47
73306;BME280;61530;51.158;0.880;2023-02-02T22:48:01;1025.35;;;8.4375;38.7782
73306;BME280;61530;51.158;0.880;2023-02-02T22:49:05;1025.37;;;8.375;37.7623
73306;BME280;61530;51.158;0.880;2023-02-02T22:50:09;1025.33;;;8.375;38.2394
73306;BME280;61530;51.158;0.880;2023-02-02T22:51:13;1025.27;;;8.3125;38.1128
73306;BME280;61530;51.158;0.880;2023-02-02T22:52:16;1025.25;;;8.3125;38.7664
73306;BME280;61530;51.158;0.880;2023-02-02T22:53:21;1025.21;;;8.25;38.088
73306;BME280;61530;51.158;0.880;2023-02-02T22:54:24;1025.16;;;8.25;38.4051
73306;BME280;61530;51.158;0.880;2023-02-02T22:55:29;1025.21;;;8.3125;39.4935
73306;BME280;61530;51.158;0.880;2023-02-02T22:56:32;1025.21;;;8.25;40.0822
73306;BME280;61530;51.158;0.880;2023-02-02T22:57:37;1025.22;;;8.4375;40.476
73306;BME280;61530;51.158;0.880;2023-02-02T22:58:40;1025.16;;;8.375;41.2857
73306;BME280;61530;51.158;0.880;2023-02-02T22:59:45;1025.12;;;8.4375;41.9698
73306;BME280;61530;51.158;0.880;2023-02-02T23:00:48;1025.11;;;8.375;41.0867
73306;BME280;61530;51.158;0.880;2023-02-02T23:01:53;1025.12;;;8.3125;40.3965
73306;BME280;61530;51.158;0.880;2023-02-02T23:02:56;1025.09;;;8.3125;40.391
73306;BME280;61530;51.158;0.880;2023-02-02T23:04:01;1025.14;;;8.25;39.6536
73306;BME280;61530;51.158;0.880;2023-02-02T23:05:05;1025.16;;;8.3125;40.2196
73306;BME280;61530;51.158;0.880;2023-02-02T23:06:09;1025.16;;;8.3125;38.1993
73306;BME280;61530;51.158;0.880;2023-02-02T23:07:12;1025.18;;;8.3125;37.9688